sensor_id;sensor_type;location;lat;lon;timestamp;P1;durP1;ratioP1;P2;durP2;ratioP2
9128;SDS011;4599;50.906;6.786;2023-02-22T00:01:43;363.70;;;31.57;;
9128;SDS011;4599;50.906;6.786;2023-02-22T00:05:46;319.07;;;32.20;;
9128;SDS011;4599;50.906;6.786;2023-02-22T00:09:47;354.03;;;35.60;;
9128;SDS011;4599;50.906;6.786;2023-02-22T00:13:49;353.37;;;35.63;;
9128;SDS011;4599;50.906;6.786;2023-02-22T00:17:50;385.97;;;34.73;;
9128;SDS011;4599;50.906;6.786;2023-02-22T00:21:53;384.17;;;33.70;;
9128;SDS011;4599;50.906;6.786;2023-02-22T00:25:55;479.97;;;36.20;;
9128;SDS011;4599;50.906;6.786;2023-02-22T00:29:58;363.13;;;34.27;;
9128;SDS011;4599;50.906;6.786;2023-02-22T00:33:59;294.20;;;30.90;;
9128;SDS011;4599;50.906;6.786;2023-02-22T00:38:02;458.77;;;36.17;;
9128;SDS011;4599;50.906;6.786;2023-02-22T00:42:04;581.00;;;37.30;;
9128;SDS011;4599;50.906;6.786;2023-02-22T00:46:05;409.53;;;34.43;;
9128;SDS011;4599;50.906;6.786;2023-02-22T00:50:07;505.37;;;36.80;;
9128;SDS011;4599;50.906;6.786;2023-02-22T00:54:10;432.33;;;36.13;;
9128;SDS011;4599;50.906;6.786;2023-02-22T00:58:12;536.03;;;35.33;;
9128;SDS011;4599;50.906;6.786;2023-02-22T01:02:13;419.30;;;35.57;;
9128;SDS011;4599;50.906;6.786;2023-02-22T01:06:15;425.27;;;37.83;;
9128;SDS011;4599;50.906;6.786;2023-02-22T01:10:18;433.53;;;35.47;;
9128;SDS011;4599;50.906;6.786;2023-02-22T01:14:21;429.87;;;36.37;;
9128;SDS011;4599;50.906;6.786;2023-02-22T01:18:24;524.93;;;37.70;;
9128;SDS011;4599;50.906;6.786;2023-02-22T01:22:25;524.40;;;39.73;;
9128;SDS011;4599;50.906;6.786;2023-02-22T01:26:28;441.37;;;37.87;;
9128;SDS011;4599;50.906;6.786;2023-02-22T01:30:30;687.50;;;41.07;;
9128;SDS011;4599;50.906;6.786;2023-02-22T01:34:33;378.07;;;36.93;;
9128;SDS011;4599;50.906;6.786;2023-02-22T01:38:35;499.27;;;39.93;;
9128;SDS011;4599;50.906;6.786;2023-02-22T01:42:37;483.43;;;40.17;;
9128;SDS011;4599;50.906;6.786;2023-02-22T01:46:39;510.00;;;39.73;;
9128;SDS011;4599;50.906;6.786;2023-02-22T01:50:41;430.40;;;40.57;;
9128;SDS011;4599;50.906;6.786;2023-02-22T01:54:47;485.20;;;39.47;;
9128;SDS011;4599;50.906;6.786;2023-02-22T01:58:54;545.43;;;42.10;;
9128;SDS011;4599;50.906;6.786;2023-02-22T02:03:05;407.07;;;40.83;;
9128;SDS011;4599;50.906;6.786;2023-02-22T02:07:12;418.47;;;39.27;;
9128;SDS011;4599;50.906;6.786;2023-02-22T02:11:18;452.97;;;38.73;;
9128;SDS011;4599;50.906;6.786;2023-02-22T02:15:24;537.67;;;42.17;;
9128;SDS011;4599;50.906;6.786;2023-02-22T02:19:31;516.50;;;40.50;;
9128;SDS011;4599;50.906;6.786;2023-02-22T02:23:51;499.13;;;38.07;;
9128;SDS011;4599;50.906;6.786;2023-02-22T02:28:16;512.60;;;41.10;;
9128;SDS011;4599;50.906;6.786;2023-02-22T02:32:38;334.17;;;40.90;;
9128;SDS011;4599;50.906;6.786;2023-02-22T02:36:51;488.70;;;39.97;;
9128;SDS011;4599;50.906;6.786;2023-02-22T02:41:02;490.57;;;39.63;;
9128;SDS011;4599;50.906;6.786;2023-02-22T02:45:07;405.93;;;38.97;;
9128;SDS011;4599;50.906;6.786;2023-02-22T02:49:14;425.17;;;39.60;;
9128;SDS011;4599;50.906;6.786;2023-02-22T02:53:20;426.20;;;38.67;;
9128;SDS011;4599;50.906;6.786;2023-02-22T02:57:25;544.10;;;40.73;;
9128;SDS011;4599;50.906;6.786;2023-02-22T03:01:31;205.40;;;31.27;;
9128;SDS011;4599;50.906;6.786;2023-02-22T03:05:59;241.13;;;33.13;;
9128;SDS011;4599;50.906;6.786;2023-02-22T03:10:16;244.37;;;31.87;;
9128;SDS011;4599;50.906;6.786;2023-02-22T03:14:28;344.23;;;30.70;;
9128;SDS011;4599;50.906;6.786;2023-02-22T03:18:40;411.43;;;29.60;;
9128;SDS011;4599;50.906;6.786;2023-02-22T03:22:52;245.70;;;27.23;;
9128;SDS011;4599;50.906;6.786;2023-02-22T03:26:59;252.17;;;28.27;;
9128;SDS011;4599;50.906;6.786;2023-02-22T03:31:04;335.97;;;27.53;;
9128;SDS011;4599;50.906;6.786;2023-02-22T03:35:13;548.63;;;32.63;;
9128;SDS011;4599;50.906;6.786;2023-02-22T03:39:22;265.03;;;27.63;;
9128;SDS011;4599;50.906;6.786;2023-02-22T03:43:26;405.50;;;29.53;;
9128;SDS011;4599;50.906;6.786;2023-02-22T03:47:31;225.30;;;25.80;;
9128;SDS011;4599;50.906;6.786;2023-02-22T03:51:38;306.07;;;26.93;;
9128;SDS011;4599;50.906;6.786;2023-02-22T03:55:41;328.90;;;26.40;;
9128;SDS011;4599;50.906;6.786;2023-02-22T03:59:42;349.17;;;26.40;;
9128;SDS011;4599;50.906;6.786;2023-02-22T04:03:44;292.33;;;25.03;;
9128;SDS011;4599;50.906;6.786;2023-02-22T04:07:46;267.80;;;26.23;;
9128;SDS011;4599;50.906;6.786;2023-02-22T04:11:48;384.63;;;25.73;;
9128;SDS011;4599;50.906;6.786;2023-02-22T04:15:50;344.90;;;24.93;;
9128;SDS011;4599;50.906;6.786;2023-02-22T04:19:51;311.37;;;25.17;;
9128;SDS011;4599;50.906;6.786;2023-02-22T04:23:53;403.47;;;23.63;;
9128;SDS011;4599;50.906;6.786;2023-02-22T04:27:56;349.80;;;23.57;;
9128;SDS011;4599;50.906;6.786;2023-02-22T04:31:57;296.87;;;22.57;;
9128;SDS011;4599;50.906;6.786;2023-02-22T04:35:59;222.27;;;21.67;;
9128;SDS011;4599;50.906;6.786;2023-02-22T04:40:00;318.43;;;25.57;;
9128;SDS011;4599;50.906;6.786;2023-02-22T04:44:03;317.37;;;23.87;;
9128;SDS011;4599;50.906;6.786;2023-02-22T04:48:05;255.27;;;22.07;;
9128;SDS011;4599;50.906;6.786;2023-02-22T04:52:06;316.37;;;23.20;;
9128;SDS011;4599;50.906;6.786;2023-02-22T04:56:08;316.40;;;21.87;;
9128;SDS011;4599;50.906;6.786;2023-02-22T05:00:14;407.37;;;22.93;;
9128;SDS011;4599;50.906;6.786;2023-02-22T05:04:16;280.10;;;20.40;;
9128;SDS011;4599;50.906;6.786;2023-02-22T05:08:18;165.50;;;19.63;;
9128;SDS011;4599;50.906;6.786;2023-02-22T05:12:19;312.43;;;21.20;;
9128;SDS011;4599;50.906;6.786;2023-02-22T05:16:22;413.23;;;24.80;;
9128;SDS011;4599;50.906;6.786;2023-02-22T05:20:25;319.40;;;23.50;;
9128;SDS011;4599;50.906;6.786;2023-02-22T05:24:29;527.87;;;27.63;;
9128;SDS011;4599;50.906;6.786;2023-02-22T05:28:30;447.07;;;27.80;;
9128;SDS011;4599;50.906;6.786;2023-02-22T05:32:33;490.07;;;29.13;;
9128;SDS011;4599;50.906;6.786;2023-02-22T05:36:35;315.60;;;27.40;;
9128;SDS011;4599;50.906;6.786;2023-02-22T05:40:36;326.63;;;25.63;;
9128;SDS011;4599;50.906;6.786;2023-02-22T05:44:38;338.73;;;25.67;;
9128;SDS011;4599;50.906;6.786;2023-02-22T05:48:40;365.50;;;25.73;;
9128;SDS011;4599;50.906;6.786;2023-02-22T05:52:42;308.10;;;23.63;;
9128;SDS011;4599;50.906;6.786;2023-02-22T06:12:08;448.07;;;28.47;;
9128;SDS011;4599;50.906;6.786;2023-02-22T06:16:09;501.17;;;29.67;;
9128;SDS011;4599;50.906;6.786;2023-02-22T06:20:11;455.80;;;26.47;;
9128;SDS011;4599;50.906;6.786;2023-02-22T06:24:14;512.60;;;28.23;;
9128;SDS011;4599;50.906;6.786;2023-02-22T06:28:17;399.27;;;26.90;;
9128;SDS011;4599;50.906;6.786;2023-02-22T06:32:19;259.93;;;24.93;;
9128;SDS011;4599;50.906;6.786;2023-02-22T06:36:20;208.30;;;22.70;;
9128;SDS011;4599;50.906;6.786;2023-02-22T06:40:22;142.83;;;22.77;;
9128;SDS011;4599;50.906;6.786;2023-02-22T06:44:25;102.93;;;22.77;;
9128;SDS011;4599;50.906;6.786;2023-02-22T06:48:26;142.40;;;22.37;;
9128;SDS011;4599;50.906;6.786;2023-02-22T06:52:27;88.43;;;21.87;;
9128;SDS011;4599;50.906;6.786;2023-02-22T06:56:29;40.23;;;20.20;;
9128;SDS011;4599;50.906;6.786;2023-02-22T07:00:34;36.00;;;19.53;;
9128;SDS011;4599;50.906;6.786;2023-02-22T07:04:36;37.60;;;20.30;;
9128;SDS011;4599;50.906;6.786;2023-02-22T07:08:37;38.23;;;20.93;;
9128;SDS011;4599;50.906;6.786;2023-02-22T07:12:39;36.90;;;20.77;;
9128;SDS011;4599;50.906;6.786;2023-02-22T07:16:41;42.93;;;21.37;;
9128;SDS011;4599;50.906;6.786;2023-02-22T07:20:43;39.43;;;20.97;;
9128;SDS011;4599;50.906;6.786;2023-02-22T07:24:45;43.73;;;21.23;;
9128;SDS011;4599;50.906;6.786;2023-02-22T07:28:47;40.57;;;20.93;;
9128;SDS011;4599;50.906;6.786;2023-02-22T07:32:50;47.00;;;22.83;;
9128;SDS011;4599;50.906;6.786;2023-02-22T07:36:53;44.43;;;22.33;;
9128;SDS011;4599;50.906;6.786;2023-02-22T07:40:54;45.73;;;22.73;;
9128;SDS011;4599;50.906;6.786;2023-02-22T07:44:56;49.87;;;24.57;;
9128;SDS011;4599;50.906;6.786;2023-02-22T07:48:59;55.33;;;26.13;;
9128;SDS011;4599;50.906;6.786;2023-02-22T07:53:02;51.00;;;23.60;;
9128;SDS011;4599;50.906;6.786;2023-02-22T07:57:05;57.00;;;27.57;;
9128;SDS011;4599;50.906;6.786;2023-02-22T08:01:06;50.50;;;24.70;;
9128;SDS011;4599;50.906;6.786;2023-02-22T08:05:09;52.73;;;25.00;;
9128;SDS011;4599;50.906;6.786;2023-02-22T08:09:11;50.07;;;24.57;;
9128;SDS011;4599;50.906;6.786;2023-02-22T08:13:13;42.50;;;22.97;;
9128;SDS011;4599;50.906;6.786;2023-02-22T08:17:14;40.60;;;21.17;;
9128;SDS011;4599;50.906;6.786;2023-02-22T08:21:17;39.70;;;21.30;;
9128;SDS011;4599;50.906;6.786;2023-02-22T08:25:20;32.50;;;18.80;;
9128;SDS011;4599;50.906;6.786;2023-02-22T08:29:24;30.53;;;18.70;;
9128;SDS011;4599;50.906;6.786;2023-02-22T08:33:25;30.43;;;17.93;;
9128;SDS011;4599;50.906;6.786;2023-02-22T08:37:28;27.93;;;16.50;;
9128;SDS011;4599;50.906;6.786;2023-02-22T08:41:30;27.97;;;17.50;;
9128;SDS011;4599;50.906;6.786;2023-02-22T08:45:31;30.47;;;17.00;;
9128;SDS011;4599;50.906;6.786;2023-02-22T08:49:33;28.73;;;17.20;;
9128;SDS011;4599;50.906;6.786;2023-02-22T08:53:36;27.80;;;16.63;;
9128;SDS011;4599;50.906;6.786;2023-02-22T08:57:37;28.80;;;16.27;;
9128;SDS011;4599;50.906;6.786;2023-02-22T09:01:38;24.80;;;15.63;;
9128;SDS011;4599;50.906;6.786;2023-02-22T09:05:40;27.37;;;15.37;;
9128;SDS011;4599;50.906;6.786;2023-02-22T09:09:44;22.93;;;14.87;;
9128;SDS011;4599;50.906;6.786;2023-02-22T09:13:45;24.57;;;14.83;;
9128;SDS011;4599;50.906;6.786;2023-02-22T09:17:47;25.20;;;14.33;;
9128;SDS011;4599;50.906;6.786;2023-02-22T09:21:51;24.47;;;13.83;;
9128;SDS011;4599;50.906;6.786;2023-02-22T09:25:54;24.80;;;14.70;;
9128;SDS011;4599;50.906;6.786;2023-02-22T09:29:56;20.23;;;13.93;;
9128;SDS011;4599;50.906;6.786;2023-02-22T09:33:59;18.77;;;11.70;;
9128;SDS011;4599;50.906;6.786;2023-02-22T09:38:04;20.33;;;12.67;;
9128;SDS011;4599;50.906;6.786;2023-02-22T09:42:07;20.13;;;12.60;;
9128;SDS011;4599;50.906;6.786;2023-02-22T09:46:16;18.80;;;10.90;;
9128;SDS011;4599;50.906;6.786;2023-02-22T09:50:28;17.97;;;11.37;;
9128;SDS011;4599;50.906;6.786;2023-02-22T09:54:35;17.63;;;10.33;;
9128;SDS011;4599;50.906;6.786;2023-02-22T09:58:42;19.57;;;11.07;;
9128;SDS011;4599;50.906;6.786;2023-02-22T10:02:48;20.10;;;11.40;;
9128;SDS011;4599;50.906;6.786;2023-02-22T10:06:57;18.20;;;11.37;;
9128;SDS011;4599;50.906;6.786;2023-02-22T10:11:05;18.37;;;11.07;;
9128;SDS011;4599;50.906;6.786;2023-02-22T10:15:27;16.97;;;9.60;;
9128;SDS011;4599;50.906;6.786;2023-02-22T10:19:38;13.20;;;9.60;;
9128;SDS011;4599;50.906;6.786;2023-02-22T10:23:46;17.60;;;10.67;;
9128;SDS011;4599;50.906;6.786;2023-02-22T10:27:54;16.03;;;11.23;;
9128;SDS011;4599;50.906;6.786;2023-02-22T10:31:59;17.17;;;10.27;;
9128;SDS011;4599;50.906;6.786;2023-02-22T10:36:04;14.27;;;10.10;;
9128;SDS011;4599;50.906;6.786;2023-02-22T10:40:11;12.47;;;9.60;;
9128;SDS011;4599;50.906;6.786;2023-02-22T10:44:15;16.57;;;10.27;;
9128;SDS011;4599;50.906;6.786;2023-02-22T10:48:18;16.13;;;9.83;;
9128;SDS011;4599;50.906;6.786;2023-02-22T10:52:24;13.83;;;9.50;;
9128;SDS011;4599;50.906;6.786;2023-02-22T10:56:27;14.83;;;8.87;;
9128;SDS011;4599;50.906;6.786;2023-02-22T11:00:30;11.97;;;8.90;;
9128;SDS011;4599;50.906;6.786;2023-02-22T11:04:44;14.37;;;8.33;;
9128;SDS011;4599;50.906;6.786;2023-02-22T11:08:47;12.20;;;8.13;;
9128;SDS011;4599;50.906;6.786;2023-02-22T11:12:48;11.50;;;8.10;;
9128;SDS011;4599;50.906;6.786;2023-02-22T11:16:51;12.20;;;8.07;;
9128;SDS011;4599;50.906;6.786;2023-02-22T11:21:05;10.93;;;7.97;;
9128;SDS011;4599;50.906;6.786;2023-02-22T11:25:16;9.50;;;7.27;;
9128;SDS011;4599;50.906;6.786;2023-02-22T11:29:20;10.90;;;7.13;;
9128;SDS011;4599;50.906;6.786;2023-02-22T11:33:25;9.63;;;6.60;;
9128;SDS011;4599;50.906;6.786;2023-02-22T11:37:30;10.27;;;6.90;;
9128;SDS011;4599;50.906;6.786;2023-02-22T11:41:34;11.53;;;6.70;;
9128;SDS011;4599;50.906;6.786;2023-02-22T11:45:35;9.40;;;6.30;;
9128;SDS011;4599;50.906;6.786;2023-02-22T11:49:40;8.83;;;5.73;;
9128;SDS011;4599;50.906;6.786;2023-02-22T11:53:50;9.00;;;6.20;;
9128;SDS011;4599;50.906;6.786;2023-02-22T11:58:03;8.90;;;5.63;;
9128;SDS011;4599;50.906;6.786;2023-02-22T12:02:34;7.07;;;5.50;;
9128;SDS011;4599;50.906;6.786;2023-02-22T12:07:01;9.90;;;5.47;;
9128;SDS011;4599;50.906;6.786;2023-02-22T12:11:16;7.30;;;4.60;;
9128;SDS011;4599;50.906;6.786;2023-02-22T12:15:24;6.07;;;5.03;;
9128;SDS011;4599;50.906;6.786;2023-02-22T12:19:29;10.97;;;5.50;;
9128;SDS011;4599;50.906;6.786;2023-02-22T12:23:35;7.03;;;4.63;;
9128;SDS011;4599;50.906;6.786;2023-02-22T12:27:46;9.60;;;4.83;;
9128;SDS011;4599;50.906;6.786;2023-02-22T12:31:54;9.70;;;4.40;;
9128;SDS011;4599;50.906;6.786;2023-02-22T12:36:01;5.23;;;4.37;;
9128;SDS011;4599;50.906;6.786;2023-02-22T12:40:05;8.30;;;4.77;;
9128;SDS011;4599;50.906;6.786;2023-02-22T12:44:16;8.53;;;4.67;;
9128;SDS011;4599;50.906;6.786;2023-02-22T12:48:29;9.07;;;4.60;;
9128;SDS011;4599;50.906;6.786;2023-02-22T12:52:38;9.33;;;4.47;;
9128;SDS011;4599;50.906;6.786;2023-02-22T12:56:48;8.30;;;4.80;;
9128;SDS011;4599;50.906;6.786;2023-02-22T13:00:58;7.30;;;5.37;;
9128;SDS011;4599;50.906;6.786;2023-02-22T13:05:11;8.00;;;5.40;;
9128;SDS011;4599;50.906;6.786;2023-02-22T13:13:50;8.33;;;6.00;;
9128;SDS011;4599;50.906;6.786;2023-02-22T13:18:09;8.10;;;6.10;;
9128;SDS011;4599;50.906;6.786;2023-02-22T13:22:20;13.07;;;6.13;;
9128;SDS011;4599;50.906;6.786;2023-02-22T13:26:27;8.07;;;5.60;;
9128;SDS011;4599;50.906;6.786;2023-02-22T13:30:35;9.87;;;6.70;;
9128;SDS011;4599;50.906;6.786;2023-02-22T13:34:46;11.60;;;6.87;;
9128;SDS011;4599;50.906;6.786;2023-02-22T13:39:06;11.67;;;6.27;;
9128;SDS011;4599;50.906;6.786;2023-02-22T13:43:23;10.07;;;6.03;;
9128;SDS011;4599;50.906;6.786;2023-02-22T13:47:49;8.00;;;5.90;;
9128;SDS011;4599;50.906;6.786;2023-02-22T13:52:09;7.67;;;5.87;;
9128;SDS011;4599;50.906;6.786;2023-02-22T13:56:14;8.57;;;5.87;;
9128;SDS011;4599;50.906;6.786;2023-02-22T14:00:17;10.93;;;6.97;;
9128;SDS011;4599;50.906;6.786;2023-02-22T14:04:32;9.13;;;6.37;;
9128;SDS011;4599;50.906;6.786;2023-02-22T14:08:45;9.67;;;6.00;;
9128;SDS011;4599;50.906;6.786;2023-02-22T14:12:47;12.87;;;5.93;;
9128;SDS011;4599;50.906;6.786;2023-02-22T14:21:23;7.77;;;5.90;;
9128;SDS011;4599;50.906;6.786;2023-02-22T14:25:34;8.60;;;6.07;;
9128;SDS011;4599;50.906;6.786;2023-02-22T14:29:43;9.00;;;5.57;;
9128;SDS011;4599;50.906;6.786;2023-02-22T14:33:57;11.03;;;5.73;;
9128;SDS011;4599;50.906;6.786;2023-02-22T14:38:02;10.53;;;6.20;;
9128;SDS011;4599;50.906;6.786;2023-02-22T14:42:09;8.77;;;6.10;;
9128;SDS011;4599;50.906;6.786;2023-02-22T14:46:18;10.53;;;5.80;;
9128;SDS011;4599;50.906;6.786;2023-02-22T14:50:24;9.23;;;5.80;;
9128;SDS011;4599;50.906;6.786;2023-02-22T14:54:34;10.17;;;5.93;;
9128;SDS011;4599;50.906;6.786;2023-02-22T14:58:48;8.77;;;5.77;;
9128;SDS011;4599;50.906;6.786;2023-02-22T15:02:53;7.03;;;5.20;;
9128;SDS011;4599;50.906;6.786;2023-02-22T15:06:59;7.00;;;5.33;;
9128;SDS011;4599;50.906;6.786;2023-02-22T15:11:11;9.37;;;6.03;;
9128;SDS011;4599;50.906;6.786;2023-02-22T15:15:38;8.17;;;5.83;;
9128;SDS011;4599;50.906;6.786;2023-02-22T15:19:41;15.80;;;5.97;;
9128;SDS011;4599;50.906;6.786;2023-02-22T15:23:43;9.40;;;5.60;;
9128;SDS011;4599;50.906;6.786;2023-02-22T15:27:47;8.63;;;5.87;;
9128;SDS011;4599;50.906;6.786;2023-02-22T15:31:50;10.47;;;5.50;;
9128;SDS011;4599;50.906;6.786;2023-02-22T15:35:55;10.50;;;6.17;;
9128;SDS011;4599;50.906;6.786;2023-02-22T15:40:03;8.20;;;5.97;;
9128;SDS011;4599;50.906;6.786;2023-02-22T15:44:07;12.80;;;6.10;;
9128;SDS011;4599;50.906;6.786;2023-02-22T15:48:25;12.20;;;6.20;;
9128;SDS011;4599;50.906;6.786;2023-02-22T15:52:27;10.90;;;6.00;;
9128;SDS011;4599;50.906;6.786;2023-02-22T15:56:29;13.90;;;6.03;;
9128;SDS011;4599;50.906;6.786;2023-02-22T16:00:34;10.30;;;6.50;;
9128;SDS011;4599;50.906;6.786;2023-02-22T16:04:39;9.03;;;6.70;;
9128;SDS011;4599;50.906;6.786;2023-02-22T16:08:46;9.87;;;6.97;;
9128;SDS011;4599;50.906;6.786;2023-02-22T16:13:05;10.30;;;6.80;;
9128;SDS011;4599;50.906;6.786;2023-02-22T16:17:10;16.67;;;6.60;;
9128;SDS011;4599;50.906;6.786;2023-02-22T16:21:15;14.63;;;6.60;;
9128;SDS011;4599;50.906;6.786;2023-02-22T16:25:23;11.20;;;6.73;;
9128;SDS011;4599;50.906;6.786;2023-02-22T16:29:27;11.77;;;7.00;;
9128;SDS011;4599;50.906;6.786;2023-02-22T16:33:28;12.17;;;7.47;;
9128;SDS011;4599;50.906;6.786;2023-02-22T16:37:31;9.90;;;6.37;;
9128;SDS011;4599;50.906;6.786;2023-02-22T16:41:32;12.07;;;6.90;;
9128;SDS011;4599;50.906;6.786;2023-02-22T16:45:34;11.07;;;7.33;;
9128;SDS011;4599;50.906;6.786;2023-02-22T16:49:35;11.00;;;7.17;;
9128;SDS011;4599;50.906;6.786;2023-02-22T16:53:39;10.37;;;7.57;;
9128;SDS011;4599;50.906;6.786;2023-02-22T16:57:42;11.13;;;7.97;;
9128;SDS011;4599;50.906;6.786;2023-02-22T17:01:46;8.47;;;6.50;;
9128;SDS011;4599;50.906;6.786;2023-02-22T17:05:47;13.40;;;7.70;;
9128;SDS011;4599;50.906;6.786;2023-02-22T17:09:50;10.97;;;7.23;;
9128;SDS011;4599;50.906;6.786;2023-02-22T17:13:52;11.90;;;6.70;;
9128;SDS011;4599;50.906;6.786;2023-02-22T17:17:54;8.80;;;6.47;;
9128;SDS011;4599;50.906;6.786;2023-02-22T17:21:56;10.27;;;7.23;;
9128;SDS011;4599;50.906;6.786;2023-02-22T17:26:01;10.10;;;7.07;;
9128;SDS011;4599;50.906;6.786;2023-02-22T17:30:03;11.73;;;8.37;;
9128;SDS011;4599;50.906;6.786;2023-02-22T17:34:06;11.43;;;7.20;;
9128;SDS011;4599;50.906;6.786;2023-02-22T17:38:07;13.07;;;8.40;;
9128;SDS011;4599;50.906;6.786;2023-02-22T17:42:10;9.83;;;7.07;;
9128;SDS011;4599;50.906;6.786;2023-02-22T17:46:12;12.03;;;7.63;;
9128;SDS011;4599;50.906;6.786;2023-02-22T17:50:13;13.60;;;6.43;;
9128;SDS011;4599;50.906;6.786;2023-02-22T17:54:15;13.27;;;7.03;;
9128;SDS011;4599;50.906;6.786;2023-02-22T17:58:19;10.23;;;7.10;;
9128;SDS011;4599;50.906;6.786;2023-02-22T18:02:20;11.97;;;6.90;;
9128;SDS011;4599;50.906;6.786;2023-02-22T18:06:22;14.73;;;8.27;;
9128;SDS011;4599;50.906;6.786;2023-02-22T18:10:26;13.67;;;8.90;;
9128;SDS011;4599;50.906;6.786;2023-02-22T18:14:28;11.10;;;7.97;;
9128;SDS011;4599;50.906;6.786;2023-02-22T18:18:30;12.10;;;9.03;;
9128;SDS011;4599;50.906;6.786;2023-02-22T18:22:32;10.97;;;8.07;;
9128;SDS011;4599;50.906;6.786;2023-02-22T18:26:33;14.97;;;9.67;;
9128;SDS011;4599;50.906;6.786;2023-02-22T18:30:36;11.60;;;9.13;;
9128;SDS011;4599;50.906;6.786;2023-02-22T18:34:38;15.77;;;9.30;;
9128;SDS011;4599;50.906;6.786;2023-02-22T18:38:40;12.90;;;10.23;;
9128;SDS011;4599;50.906;6.786;2023-02-22T18:42:42;15.90;;;10.33;;
9128;SDS011;4599;50.906;6.786;2023-02-22T18:46:45;13.87;;;10.17;;
9128;SDS011;4599;50.906;6.786;2023-02-22T18:50:46;14.47;;;10.63;;
9128;SDS011;4599;50.906;6.786;2023-02-22T18:54:48;16.13;;;10.73;;
9128;SDS011;4599;50.906;6.786;2023-02-22T18:58:51;11.47;;;9.60;;
9128;SDS011;4599;50.906;6.786;2023-02-22T19:02:54;15.17;;;11.23;;
9128;SDS011;4599;50.906;6.786;2023-02-22T19:06:56;18.33;;;11.67;;
9128;SDS011;4599;50.906;6.786;2023-02-22T19:11:00;14.10;;;11.17;;
9128;SDS011;4599;50.906;6.786;2023-02-22T19:15:03;16.77;;;11.87;;
9128;SDS011;4599;50.906;6.786;2023-02-22T19:19:06;18.67;;;12.13;;
9128;SDS011;4599;50.906;6.786;2023-02-22T19:23:07;18.50;;;11.33;;
9128;SDS011;4599;50.906;6.786;2023-02-22T19:27:09;15.63;;;12.30;;
9128;SDS011;4599;50.906;6.786;2023-02-22T19:31:12;15.80;;;12.60;;
9128;SDS011;4599;50.906;6.786;2023-02-22T19:35:16;17.43;;;12.57;;
9128;SDS011;4599;50.906;6.786;2023-02-22T19:39:18;15.80;;;12.13;;
9128;SDS011;4599;50.906;6.786;2023-02-22T19:43:20;17.03;;;12.37;;
9128;SDS011;4599;50.906;6.786;2023-02-22T19:47:22;19.03;;;13.10;;
9128;SDS011;4599;50.906;6.786;2023-02-22T19:51:25;18.00;;;13.00;;
9128;SDS011;4599;50.906;6.786;2023-02-22T19:55:28;18.37;;;12.43;;
9128;SDS011;4599;50.906;6.786;2023-02-22T19:59:29;17.53;;;12.53;;
9128;SDS011;4599;50.906;6.786;2023-02-22T20:03:31;19.33;;;13.13;;
9128;SDS011;4599;50.906;6.786;2023-02-22T20:07:34;20.93;;;13.97;;
9128;SDS011;4599;50.906;6.786;2023-02-22T20:11:35;18.87;;;14.10;;
9128;SDS011;4599;50.906;6.786;2023-02-22T20:15:37;19.43;;;14.93;;
9128;SDS011;4599;50.906;6.786;2023-02-22T20:19:38;24.80;;;14.23;;
9128;SDS011;4599;50.906;6.786;2023-02-22T20:23:41;17.47;;;14.33;;
9128;SDS011;4599;50.906;6.786;2023-02-22T20:27:43;20.17;;;15.33;;
9128;SDS011;4599;50.906;6.786;2023-02-22T20:31:45;20.07;;;14.60;;
9128;SDS011;4599;50.906;6.786;2023-02-22T20:35:46;20.17;;;15.03;;
9128;SDS011;4599;50.906;6.786;2023-02-22T20:39:50;20.00;;;14.80;;
9128;SDS011;4599;50.906;6.786;2023-02-22T20:43:52;20.07;;;16.13;;
9128;SDS011;4599;50.906;6.786;2023-02-22T20:47:55;17.67;;;14.80;;
9128;SDS011;4599;50.906;6.786;2023-02-22T20:51:56;20.73;;;16.33;;
9128;SDS011;4599;50.906;6.786;2023-02-22T20:56:00;24.03;;;16.80;;
9128;SDS011;4599;50.906;6.786;2023-02-22T21:00:01;22.73;;;17.20;;
9128;SDS011;4599;50.906;6.786;2023-02-22T21:04:04;22.03;;;17.57;;
9128;SDS011;4599;50.906;6.786;2023-02-22T21:08:07;24.77;;;18.90;;
9128;SDS011;4599;50.906;6.786;2023-02-22T21:12:10;24.70;;;18.53;;
9128;SDS011;4599;50.906;6.786;2023-02-22T21:16:14;25.37;;;18.87;;
9128;SDS011;4599;50.906;6.786;2023-02-22T21:20:17;27.07;;;18.87;;
9128;SDS011;4599;50.906;6.786;2023-02-22T21:24:21;26.90;;;19.27;;
9128;SDS011;4599;50.906;6.786;2023-02-22T21:28:23;24.17;;;19.37;;
9128;SDS011;4599;50.906;6.786;2023-02-22T21:32:32;21.97;;;18.67;;
9128;SDS011;4599;50.906;6.786;2023-02-22T21:36:34;24.10;;;20.67;;
9128;SDS011;4599;50.906;6.786;2023-02-22T21:40:35;26.13;;;20.07;;
9128;SDS011;4599;50.906;6.786;2023-02-22T21:44:38;25.00;;;20.47;;
9128;SDS011;4599;50.906;6.786;2023-02-22T21:48:40;25.90;;;21.33;;
9128;SDS011;4599;50.906;6.786;2023-02-22T21:52:43;24.47;;;20.87;;
9128;SDS011;4599;50.906;6.786;2023-02-22T21:56:45;27.33;;;21.40;;
9128;SDS011;4599;50.906;6.786;2023-02-22T22:00:48;27.30;;;22.87;;
9128;SDS011;4599;50.906;6.786;2023-02-22T22:04:49;27.50;;;23.37;;
9128;SDS011;4599;50.906;6.786;2023-02-22T22:08:50;26.37;;;22.83;;
9128;SDS011;4599;50.906;6.786;2023-02-22T22:12:52;29.27;;;24.10;;
9128;SDS011;4599;50.906;6.786;2023-02-22T22:16:55;29.10;;;23.97;;
9128;SDS011;4599;50.906;6.786;2023-02-22T22:20:57;27.10;;;22.83;;
9128;SDS011;4599;50.906;6.786;2023-02-22T22:24:59;28.53;;;23.00;;
9128;SDS011;4599;50.906;6.786;2023-02-22T22:29:00;29.63;;;24.30;;
9128;SDS011;4599;50.906;6.786;2023-02-22T22:33:03;30.97;;;24.23;;
9128;SDS011;4599;50.906;6.786;2023-02-22T22:37:05;29.20;;;24.77;;
9128;SDS011;4599;50.906;6.786;2023-02-22T22:41:07;29.27;;;24.60;;
9128;SDS011;4599;50.906;6.786;2023-02-22T22:45:10;28.93;;;24.20;;
9128;SDS011;4599;50.906;6.786;2023-02-22T22:49:14;33.67;;;24.27;;
9128;SDS011;4599;50.906;6.786;2023-02-22T22:53:16;30.23;;;25.07;;
9128;SDS011;4599;50.906;6.786;2023-02-22T22:57:18;29.50;;;25.20;;
9128;SDS011;4599;50.906;6.786;2023-02-22T23:01:20;32.00;;;25.77;;
9128;SDS011;4599;50.906;6.786;2023-02-22T23:05:25;28.97;;;25.03;;
9128;SDS011;4599;50.906;6.786;2023-02-22T23:09:28;31.03;;;25.07;;
9128;SDS011;4599;50.906;6.786;2023-02-22T23:13:30;30.03;;;25.10;;
9128;SDS011;4599;50.906;6.786;2023-02-22T23:17:32;33.67;;;26.27;;
9128;SDS011;4599;50.906;6.786;2023-02-22T23:21:35;31.47;;;25.67;;
9128;SDS011;4599;50.906;6.786;2023-02-22T23:25:36;30.77;;;25.63;;
9128;SDS011;4599;50.906;6.786;2023-02-22T23:29:40;31.23;;;26.63;;
9128;SDS011;4599;50.906;6.786;2023-02-22T23:33:43;31.77;;;26.57;;
9128;SDS011;4599;50.906;6.786;2023-02-22T23:37:49;30.77;;;24.97;;
9128;SDS011;4599;50.906;6.786;2023-02-22T23:41:51;37.53;;;26.10;;
9128;SDS011;4599;50.906;6.786;2023-02-22T23:45:53;31.70;;;24.90;;
9128;SDS011;4599;50.906;6.786;2023-02-22T23:49:55;33.13;;;25.73;;
9128;SDS011;4599;50.906;6.786;2023-02-22T23:53:58;30.73;;;24.70;;
9128;SDS011;4599;50.906;6.786;2023-02-22T23:57:59;29.77;;;25.60;;
